Relevés horaires Gornergrat (Suisse)


Relevés horaires à Gornergrat - Vendredi 16 Oct. 2015
Heure UTC1 Température [°C] Vent [km/h] Hum. [%] Pres.4 [hPa] Visi. [Km] Nébu. [octa] Préc.5 [mm] Cond.
2m. Res. Ros. Dir.2 Vit. Moy. Raf.3
23:00 -7.3 -10.2 -16.8 S 5.6 13.0 14.8 46 700(0.3/3h) -- -- -- --
22:00 -7.6 -7.6 -15.1 SSO 3.7 7.4 9.3 55 700 -- -- -- --
21:00 -7.6 -12.2 -15.8 SE 9.3 11.1 13.0 52 700(0.7/3h) -- -- -- --
20:00 -7.5 -10.4 -15.9 SSE 5.6 9.3 11.1 51 700(0.9/3h) -- -- -- --
19:00 -7.7 -10.7 -14.8 SE 5.6 9.3 11.1 57 700(0.9/3h) -- -- -- --
18:00 -7.9 -10.9 -13.6 SE 5.6 7.4 13.0 63 700(0.9/3h) -- -- -- --
17:00 -7.0 -7.0 -13.3 ENE 3.7 5.6 9.3 61 700(0.6/3h) -- -- -- --
16:00 -7.5 -7.5 -13.5 N 3.7 5.6 7.4 62 700(0.5/3h) -- -- -- --
15:00 -7.8 -7.8 -13.7 NNO 3.7 7.4 13.0 62 700(0.4/3h) -- -- -- --
14:00 -5.6 -5.6 -10.0 SSE 1.9 7.4 13.0 71 700(0.3/3h) -- -- -- --
13:00 -6.2 -6.2 -10.4 SE 3.7 5.6 13.0 72 700(0.2/3h) -- -- -- --
12:00 -5.6 -9.1 -9.4 SE 7.4 13.0 18.5 74 700(0.4/3h) -- -- -- --
11:00 -6.4 -11.3 -11.5 SE 11.1 11.1 14.8 67 700(0.8/3h) -- -- -- --
10:00 -7.3 -7.3 -11.1 ENE 1.9 5.6 11.1 74 700 -- -- -- --
09:00 -8.3 -11.4 -11.2 ESE 5.6 13.0 18.5 79 700(1.4/3h) -- -- -- --
08:00 -10.5 -14.8 -12.2 SSE 7.4 9.3 11.1 87 700(1.1/3h) -- -- -- --
07:00 -11.7 -17.7 -12.8 NNO 11.1 -- -- 91 700 -- -- -- --
06:00 -12.0 -18 -12.4 N 11.1 11.1 20.4 97 700 -- -- -- --
05:00 -10.2 -14.5 -12.1 ESE 7.4 7.4 11.1 86 700(0.2/3h) -- -- -- --
04:00 -11.5 -15 -12.0 N 5.6 5.6 11.1 96 700(0.3/3h) -- -- -- --
03:00 -10.3 -14.6 -11.9 SE 7.4 11.1 20.4 88 700 -- -- -- --
02:00 -10.6 -14 -11.8 ESE 5.6 9.3 13.0 91 700(0.4/3h) -- -- -- --
01:00 -10.9 -14.3 -11.3 ESE 5.6 5.6 9.3 97 700(0.5/3h) -- -- -- --
00:00 -10.9 -10.9 -11.9 NO 3.7 22.2 31.5 92 700(0.3/3h) -- -- -- --

1 Coordinated Universal Time. Actuellement il est 02:00 locale et 00:00 UTC.

2 Le vent souffle depuis la direction indiquée vers la direction oposée.

3 Les rafales max. sont disponible 40 min après l'heure du relevé.

4 Pour les stations d'altitude (plus de 600m) le géopotentiel du niveau le plus proche de la pression obligatoire est indiqué.

5 Les stations disposant d'un diffuseur peuvent indiquer "trace". Cela signifie que des précipitations ont touchés le sol mais que la quantité est inférieure à 0.1 mm.

Copyright

Les données affichées sur cette page sont la propriété exclusive de Météo Suisse.

Récapitulatif de la journée
Température [°C] Vent [km/h] Ensoleillement4 [h] Precipitations totale5 [mm] Pression [Hpa]
Min1 Max.2 Moy.3 Max. Min Max.
-12.0 -5.0 9.3 31.5 9 h 30 min 0 700.0 700.0

1 Température minimale relevée entre 18:00 UTC la veille et 18:00 UTC le jour donné.

2 Température maximale relevée entre 06:00 UTC le jour donné et 06:00 UTC le lendemain.

3 Vent moyen de la journée basé sur les relevés horaires.

4 Ensoleillement en heures relevé entre 06:00 UTC la veille et 06:00 UTC le jour donné.

5 Précipitations totales tombées entre 06:00 UTC la jour donné et 06:00 UTC le lendemain.

Graphiques horaires